Airfield :
LOGIN :

Register | Disclaimer

   EN    FR    IT 

 










Legend :    VFR   Marginal VFR   IFR   Intensive IFR   Very Intensive IFR
Visi :
Ceiling :
>= 8 km
>= 3000ft
5 to 8 km
1000 to 3000 ft
1500m to 5 km
500 to 1000 ft
800 to 1500m
200 to 500 ft
< 800m
< 200 ft
Symbols :   Thunderstorms  Fog  Heavy snow  Heavy precipitations  Wind > 20 kt
SIGMETs :     Misc.  Thunderstorms  Icing  Turbulence  Mountain Waves  Volcanic Ashes






- Airport Elevation : 433 ft


LFOC - Chateaudun

CURRENT METAR :
  • 152000Z AUTO 20009KT 9000 // ////// 04/03 Q1000

EXPIRED METARs :
  • 151930Z AUTO 19009KT 9999 ////// 04/03 Q0999
  • 151900Z AUTO 20010KT 9999 ////// 03/03 Q0999
  • 151830Z AUTO 20010KT 9999 // ////// 03/03 Q0999
  • 151800Z AUTO 20010KT 9999 // ////// 03/03 Q0999
  • 151730Z AUTO 20009KT 9000 // ////// 03/03 Q0999

TAF TAF LFOC
Valid from the 15 at 09:00 until the 16 at 09:00 UTC


150800Z 1509/1609 34008KT 9999 BKN015
TEMPO 1514/1603 4900 -RADZ BKN006
PROB30
TEMPO 1522/1603 23012KT



MET'MAP, your aeronautical weather chart ! - Copyright ORBIFLY December 2007 - Disclaimer

ORBIFLY MET'MAP TEAM :

Programming & Development : Alexandra Zaïnal
Concept & Development : Baudouin d'Aumeries
Co-Development & Prog : Marc-Olivier Méhu
Technical & hardware support : Manuel Goepfert

Contact : metmap@orbifly.com




SOURCES & CREDITS :

   NOAA